sensor_id;sensor_type;location;lat;lon;timestamp;P1;durP1;ratioP1;P2;durP2;ratioP2
49758;SDS011;35654;46.080;11.118;2022-07-29T00:02:19;4.43;;;2.63;;
49758;SDS011;35654;46.080;11.118;2022-07-29T00:04:45;4.57;;;2.43;;
49758;SDS011;35654;46.080;11.118;2022-07-29T00:07:10;4.57;;;2.93;;
49758;SDS011;35654;46.080;11.118;2022-07-29T00:09:35;3.60;;;2.20;;
49758;SDS011;35654;46.080;11.118;2022-07-29T00:12:01;3.43;;;2.63;;
49758;SDS011;35654;46.080;11.118;2022-07-29T00:14:27;4.20;;;2.67;;
49758;SDS011;35654;46.080;11.118;2022-07-29T00:16:52;5.72;;;2.88;;
49758;SDS011;35654;46.080;11.118;2022-07-29T00:19:18;6.05;;;3.03;;
49758;SDS011;35654;46.080;11.118;2022-07-29T00:21:43;4.28;;;2.53;;
49758;SDS011;35654;46.080;11.118;2022-07-29T00:24:09;4.73;;;2.90;;
49758;SDS011;35654;46.080;11.118;2022-07-29T00:26:34;4.93;;;3.10;;
49758;SDS011;35654;46.080;11.118;2022-07-29T00:29:00;3.45;;;2.75;;
49758;SDS011;35654;46.080;11.118;2022-07-29T00:31:27;4.40;;;2.97;;
49758;SDS011;35654;46.080;11.118;2022-07-29T00:33:52;5.40;;;3.33;;
49758;SDS011;35654;46.080;11.118;2022-07-29T00:36:18;5.00;;;3.38;;
49758;SDS011;35654;46.080;11.118;2022-07-29T00:38:43;3.80;;;3.07;;
49758;SDS011;35654;46.080;11.118;2022-07-29T00:41:10;4.22;;;2.95;;
49758;SDS011;35654;46.080;11.118;2022-07-29T00:43:36;5.43;;;3.33;;
49758;SDS011;35654;46.080;11.118;2022-07-29T00:46:02;5.93;;;2.90;;
49758;SDS011;35654;46.080;11.118;2022-07-29T00:48:27;7.10;;;3.50;;
49758;SDS011;35654;46.080;11.118;2022-07-29T00:50:53;4.17;;;3.20;;
49758;SDS011;35654;46.080;11.118;2022-07-29T00:53:18;4.18;;;3.08;;
49758;SDS011;35654;46.080;11.118;2022-07-29T00:55:45;8.05;;;3.42;;
49758;SDS011;35654;46.080;11.118;2022-07-29T00:58:11;6.00;;;3.30;;
49758;SDS011;35654;46.080;11.118;2022-07-29T01:00:38;5.45;;;3.25;;
49758;SDS011;35654;46.080;11.118;2022-07-29T01:03:05;4.38;;;3.28;;
49758;SDS011;35654;46.080;11.118;2022-07-29T01:07:57;6.88;;;3.95;;
49758;SDS011;35654;46.080;11.118;2022-07-29T01:10:24;6.47;;;4.20;;
49758;SDS011;35654;46.080;11.118;2022-07-29T01:12:51;5.93;;;4.00;;
49758;SDS011;35654;46.080;11.118;2022-07-29T01:15:19;7.38;;;3.90;;
49758;SDS011;35654;46.080;11.118;2022-07-29T01:26:16;5.32;;;4.03;;
49758;SDS011;35654;46.080;11.118;2022-07-29T01:34:38;5.00;;;3.40;;
49758;SDS011;35654;46.080;11.118;2022-07-29T01:37:21;4.10;;;3.03;;
49758;SDS011;35654;46.080;11.118;2022-07-29T01:39:51;3.28;;;2.95;;
49758;SDS011;35654;46.080;11.118;2022-07-29T01:42:27;4.57;;;2.92;;
49758;SDS011;35654;46.080;11.118;2022-07-29T01:47:20;4.57;;;3.27;;
49758;SDS011;35654;46.080;11.118;2022-07-29T01:49:48;5.57;;;2.95;;
49758;SDS011;35654;46.080;11.118;2022-07-29T01:52:21;4.55;;;3.25;;
49758;SDS011;35654;46.080;11.118;2022-07-29T01:54:53;4.60;;;3.28;;
49758;SDS011;35654;46.080;11.118;2022-07-29T01:57:25;4.72;;;3.15;;
49758;SDS011;35654;46.080;11.118;2022-07-29T01:59:52;4.25;;;3.03;;
49758;SDS011;35654;46.080;11.118;2022-07-29T02:02:20;4.03;;;3.03;;
49758;SDS011;35654;46.080;11.118;2022-07-29T02:04:48;5.35;;;2.97;;
49758;SDS011;35654;46.080;11.118;2022-07-29T02:07:16;3.75;;;2.72;;
49758;SDS011;35654;46.080;11.118;2022-07-29T02:09:44;4.43;;;3.03;;
49758;SDS011;35654;46.080;11.118;2022-07-29T02:12:12;5.43;;;3.13;;
49758;SDS011;35654;46.080;11.118;2022-07-29T02:14:40;3.80;;;3.05;;
49758;SDS011;35654;46.080;11.118;2022-07-29T02:17:10;4.93;;;2.72;;
49758;SDS011;35654;46.080;11.118;2022-07-29T02:19:38;3.25;;;2.60;;
49758;SDS011;35654;46.080;11.118;2022-07-29T02:22:06;3.88;;;2.60;;
49758;SDS011;35654;46.080;11.118;2022-07-29T02:24:34;3.92;;;2.63;;
49758;SDS011;35654;46.080;11.118;2022-07-29T02:27:02;4.88;;;2.70;;
49758;SDS011;35654;46.080;11.118;2022-07-29T02:29:28;3.35;;;2.88;;
49758;SDS011;35654;46.080;11.118;2022-07-29T02:31:57;4.30;;;2.90;;
49758;SDS011;35654;46.080;11.118;2022-07-29T02:34:25;5.53;;;2.88;;
49758;SDS011;35654;46.080;11.118;2022-07-29T02:36:53;6.10;;;2.70;;
49758;SDS011;35654;46.080;11.118;2022-07-29T02:39:20;3.45;;;2.70;;
49758;SDS011;35654;46.080;11.118;2022-07-29T02:41:49;5.40;;;3.10;;
49758;SDS011;35654;46.080;11.118;2022-07-29T02:44:20;4.40;;;2.47;;
49758;SDS011;35654;46.080;11.118;2022-07-29T02:46:53;4.53;;;2.90;;
49758;SDS011;35654;46.080;11.118;2022-07-29T02:54:38;5.28;;;2.65;;
49758;SDS011;35654;46.080;11.118;2022-07-29T02:57:30;5.35;;;3.03;;
49758;SDS011;35654;46.080;11.118;2022-07-29T02:59:59;5.00;;;3.13;;
49758;SDS011;35654;46.080;11.118;2022-07-29T03:02:29;4.40;;;2.85;;
49758;SDS011;35654;46.080;11.118;2022-07-29T03:04:59;7.20;;;3.28;;
49758;SDS011;35654;46.080;11.118;2022-07-29T03:07:27;4.30;;;2.90;;
49758;SDS011;35654;46.080;11.118;2022-07-29T03:12:19;3.33;;;2.72;;
49758;SDS011;35654;46.080;11.118;2022-07-29T03:14:45;5.32;;;3.28;;
49758;SDS011;35654;46.080;11.118;2022-07-29T03:17:11;6.57;;;2.95;;
49758;SDS011;35654;46.080;11.118;2022-07-29T03:19:38;4.45;;;2.90;;
49758;SDS011;35654;46.080;11.118;2022-07-29T03:22:04;3.72;;;2.63;;
49758;SDS011;35654;46.080;11.118;2022-07-29T03:24:33;4.27;;;2.87;;
49758;SDS011;35654;46.080;11.118;2022-07-29T03:27:00;6.25;;;2.85;;
49758;SDS011;35654;46.080;11.118;2022-07-29T03:29:27;4.93;;;2.80;;
49758;SDS011;35654;46.080;11.118;2022-07-29T03:31:53;4.28;;;2.78;;
49758;SDS011;35654;46.080;11.118;2022-07-29T03:34:19;4.60;;;2.58;;
49758;SDS011;35654;46.080;11.118;2022-07-29T03:36:44;5.88;;;2.90;;
49758;SDS011;35654;46.080;11.118;2022-07-29T03:39:10;5.97;;;2.77;;
49758;SDS011;35654;46.080;11.118;2022-07-29T03:41:38;8.68;;;3.00;;
49758;SDS011;35654;46.080;11.118;2022-07-29T03:44:06;4.82;;;2.92;;
49758;SDS011;35654;46.080;11.118;2022-07-29T03:46:33;6.43;;;3.10;;
49758;SDS011;35654;46.080;11.118;2022-07-29T03:49:00;3.58;;;2.60;;
49758;SDS011;35654;46.080;11.118;2022-07-29T03:51:28;5.20;;;2.80;;
49758;SDS011;35654;46.080;11.118;2022-07-29T03:53:54;4.32;;;2.85;;
49758;SDS011;35654;46.080;11.118;2022-07-29T03:56:22;3.88;;;2.85;;
49758;SDS011;35654;46.080;11.118;2022-07-29T03:58:49;7.72;;;3.00;;
49758;SDS011;35654;46.080;11.118;2022-07-29T04:01:16;5.57;;;2.78;;
49758;SDS011;35654;46.080;11.118;2022-07-29T04:03:43;5.85;;;3.15;;
49758;SDS011;35654;46.080;11.118;2022-07-29T04:06:10;4.93;;;2.83;;
49758;SDS011;35654;46.080;11.118;2022-07-29T04:08:36;4.93;;;2.90;;
49758;SDS011;35654;46.080;11.118;2022-07-29T04:11:02;4.63;;;2.88;;
49758;SDS011;35654;46.080;11.118;2022-07-29T04:13:28;6.97;;;2.97;;
49758;SDS011;35654;46.080;11.118;2022-07-29T04:15:54;5.50;;;2.80;;
49758;SDS011;35654;46.080;11.118;2022-07-29T04:18:19;4.93;;;2.87;;
49758;SDS011;35654;46.080;11.118;2022-07-29T04:20:45;4.03;;;2.80;;
49758;SDS011;35654;46.080;11.118;2022-07-29T04:23:10;3.78;;;2.95;;
49758;SDS011;35654;46.080;11.118;2022-07-29T04:25:36;3.80;;;2.80;;
49758;SDS011;35654;46.080;11.118;2022-07-29T04:28:03;3.28;;;2.67;;
49758;SDS011;35654;46.080;11.118;2022-07-29T04:30:29;5.75;;;2.97;;
49758;SDS011;35654;46.080;11.118;2022-07-29T04:32:56;4.57;;;2.50;;
49758;SDS011;35654;46.080;11.118;2022-07-29T04:35:21;10.03;;;2.87;;
49758;SDS011;35654;46.080;11.118;2022-07-29T04:37:47;4.03;;;2.80;;
49758;SDS011;35654;46.080;11.118;2022-07-29T04:40:12;6.87;;;2.63;;
49758;SDS011;35654;46.080;11.118;2022-07-29T04:42:38;4.70;;;2.88;;
49758;SDS011;35654;46.080;11.118;2022-07-29T04:45:04;5.88;;;2.80;;
49758;SDS011;35654;46.080;11.118;2022-07-29T04:47:30;4.53;;;2.80;;
49758;SDS011;35654;46.080;11.118;2022-07-29T04:49:55;6.07;;;2.93;;
49758;SDS011;35654;46.080;11.118;2022-07-29T04:52:21;9.52;;;3.10;;
49758;SDS011;35654;46.080;11.118;2022-07-29T04:54:47;4.25;;;3.00;;
49758;SDS011;35654;46.080;11.118;2022-07-29T04:57:13;6.25;;;2.90;;
49758;SDS011;35654;46.080;11.118;2022-07-29T04:59:38;4.27;;;2.90;;
49758;SDS011;35654;46.080;11.118;2022-07-29T05:02:03;4.47;;;3.07;;
49758;SDS011;35654;46.080;11.118;2022-07-29T05:04:29;4.67;;;2.97;;
49758;SDS011;35654;46.080;11.118;2022-07-29T05:06:54;10.10;;;2.77;;
49758;SDS011;35654;46.080;11.118;2022-07-29T05:09:20;6.23;;;2.80;;
49758;SDS011;35654;46.080;11.118;2022-07-29T05:11:45;4.57;;;2.80;;
49758;SDS011;35654;46.080;11.118;2022-07-29T05:14:10;3.50;;;2.60;;
49758;SDS011;35654;46.080;11.118;2022-07-29T05:16:36;9.13;;;3.37;;
49758;SDS011;35654;46.080;11.118;2022-07-29T05:19:01;4.67;;;3.03;;
49758;SDS011;35654;46.080;11.118;2022-07-29T05:21:28;7.10;;;3.08;;
49758;SDS011;35654;46.080;11.118;2022-07-29T05:23:53;7.73;;;3.60;;
49758;SDS011;35654;46.080;11.118;2022-07-29T05:26:18;7.28;;;3.28;;
49758;SDS011;35654;46.080;11.118;2022-07-29T05:28:44;5.97;;;2.37;;
49758;SDS011;35654;46.080;11.118;2022-07-29T05:31:09;4.07;;;2.63;;
49758;SDS011;35654;46.080;11.118;2022-07-29T05:33:35;10.70;;;2.80;;
49758;SDS011;35654;46.080;11.118;2022-07-29T05:36:00;13.13;;;3.33;;
49758;SDS011;35654;46.080;11.118;2022-07-29T05:38:25;5.07;;;3.03;;
49758;SDS011;35654;46.080;11.118;2022-07-29T05:40:52;5.20;;;2.60;;
49758;SDS011;35654;46.080;11.118;2022-07-29T05:43:17;10.20;;;2.95;;
49758;SDS011;35654;46.080;11.118;2022-07-29T05:45:43;13.83;;;3.00;;
49758;SDS011;35654;46.080;11.118;2022-07-29T05:48:08;13.00;;;3.70;;
49758;SDS011;35654;46.080;11.118;2022-07-29T05:50:34;6.97;;;2.97;;
49758;SDS011;35654;46.080;11.118;2022-07-29T05:52:59;5.70;;;2.50;;
49758;SDS011;35654;46.080;11.118;2022-07-29T05:55:26;5.67;;;2.83;;
49758;SDS011;35654;46.080;11.118;2022-07-29T05:57:52;4.85;;;3.28;;
49758;SDS011;35654;46.080;11.118;2022-07-29T06:00:18;8.52;;;3.75;;
49758;SDS011;35654;46.080;11.118;2022-07-29T06:02:44;14.93;;;3.40;;
49758;SDS011;35654;46.080;11.118;2022-07-29T06:05:11;4.68;;;2.60;;
49758;SDS011;35654;46.080;11.118;2022-07-29T06:07:36;4.03;;;2.40;;
49758;SDS011;35654;46.080;11.118;2022-07-29T06:10:03;4.93;;;2.50;;
49758;SDS011;35654;46.080;11.118;2022-07-29T06:12:28;6.15;;;2.55;;
49758;SDS011;35654;46.080;11.118;2022-07-29T06:14:54;2.57;;;2.00;;
49758;SDS011;35654;46.080;11.118;2022-07-29T06:17:19;4.97;;;2.57;;
49758;SDS011;35654;46.080;11.118;2022-07-29T06:19:44;5.13;;;2.70;;
49758;SDS011;35654;46.080;11.118;2022-07-29T06:22:10;5.03;;;2.77;;
49758;SDS011;35654;46.080;11.118;2022-07-29T06:24:36;5.20;;;2.83;;
49758;SDS011;35654;46.080;11.118;2022-07-29T06:27:02;5.13;;;2.55;;
49758;SDS011;35654;46.080;11.118;2022-07-29T06:29:27;4.53;;;2.43;;
49758;SDS011;35654;46.080;11.118;2022-07-29T06:31:53;4.87;;;2.53;;
49758;SDS011;35654;46.080;11.118;2022-07-29T06:34:18;4.97;;;2.30;;
49758;SDS011;35654;46.080;11.118;2022-07-29T06:36:44;7.05;;;2.35;;
49758;SDS011;35654;46.080;11.118;2022-07-29T06:39:09;5.57;;;2.40;;
49758;SDS011;35654;46.080;11.118;2022-07-29T06:41:35;4.43;;;2.60;;
49758;SDS011;35654;46.080;11.118;2022-07-29T06:44:00;6.57;;;2.40;;
49758;SDS011;35654;46.080;11.118;2022-07-29T06:46:26;4.25;;;2.50;;
49758;SDS011;35654;46.080;11.118;2022-07-29T06:51:18;4.45;;;2.20;;
49758;SDS011;35654;46.080;11.118;2022-07-29T06:53:43;6.10;;;2.22;;
49758;SDS011;35654;46.080;11.118;2022-07-29T06:56:09;3.75;;;2.40;;
49758;SDS011;35654;46.080;11.118;2022-07-29T06:58:35;8.05;;;2.20;;
49758;SDS011;35654;46.080;11.118;2022-07-29T07:01:01;12.38;;;3.10;;
49758;SDS011;35654;46.080;11.118;2022-07-29T07:03:28;3.53;;;2.70;;
49758;SDS011;35654;46.080;11.118;2022-07-29T07:05:54;5.45;;;2.42;;
49758;SDS011;35654;46.080;11.118;2022-07-29T07:08:20;4.40;;;2.35;;
49758;SDS011;35654;46.080;11.118;2022-07-29T07:10:47;3.40;;;2.35;;
49758;SDS011;35654;46.080;11.118;2022-07-29T07:13:13;3.22;;;2.42;;
49758;SDS011;35654;46.080;11.118;2022-07-29T07:15:39;3.30;;;2.25;;
49758;SDS011;35654;46.080;11.118;2022-07-29T07:18:05;3.07;;;2.20;;
49758;SDS011;35654;46.080;11.118;2022-07-29T07:20:31;4.95;;;2.30;;
49758;SDS011;35654;46.080;11.118;2022-07-29T07:22:57;5.35;;;2.17;;
49758;SDS011;35654;46.080;11.118;2022-07-29T07:25:23;7.33;;;2.30;;
49758;SDS011;35654;46.080;11.118;2022-07-29T07:27:48;3.75;;;2.42;;
49758;SDS011;35654;46.080;11.118;2022-07-29T07:30:13;3.50;;;2.42;;
49758;SDS011;35654;46.080;11.118;2022-07-29T07:32:39;5.93;;;2.30;;
49758;SDS011;35654;46.080;11.118;2022-07-29T07:35:05;5.03;;;2.20;;
49758;SDS011;35654;46.080;11.118;2022-07-29T07:37:33;4.75;;;2.30;;
49758;SDS011;35654;46.080;11.118;2022-07-29T07:39:59;3.10;;;2.20;;
49758;SDS011;35654;46.080;11.118;2022-07-29T07:42:24;2.70;;;2.17;;
49758;SDS011;35654;46.080;11.118;2022-07-29T07:44:50;3.85;;;2.38;;
49758;SDS011;35654;46.080;11.118;2022-07-29T07:47:15;5.20;;;2.50;;
49758;SDS011;35654;46.080;11.118;2022-07-29T07:49:47;4.00;;;2.35;;
49758;SDS011;35654;46.080;11.118;2022-07-29T07:52:15;5.97;;;2.40;;
49758;SDS011;35654;46.080;11.118;2022-07-29T07:54:41;3.03;;;1.92;;
49758;SDS011;35654;46.080;11.118;2022-07-29T07:57:07;4.00;;;2.20;;
49758;SDS011;35654;46.080;11.118;2022-07-29T07:59:33;3.65;;;2.13;;
49758;SDS011;35654;46.080;11.118;2022-07-29T08:01:58;3.85;;;2.15;;
49758;SDS011;35654;46.080;11.118;2022-07-29T08:04:25;5.65;;;2.00;;
49758;SDS011;35654;46.080;11.118;2022-07-29T08:06:50;3.20;;;2.17;;
49758;SDS011;35654;46.080;11.118;2022-07-29T08:09:16;5.60;;;2.15;;
49758;SDS011;35654;46.080;11.118;2022-07-29T08:11:41;2.42;;;2.20;;
49758;SDS011;35654;46.080;11.118;2022-07-29T08:14:06;3.47;;;2.53;;
49758;SDS011;35654;46.080;11.118;2022-07-29T08:16:32;4.20;;;1.90;;
49758;SDS011;35654;46.080;11.118;2022-07-29T08:18:57;3.13;;;2.13;;
49758;SDS011;35654;46.080;11.118;2022-07-29T08:21:23;3.67;;;2.25;;
49758;SDS011;35654;46.080;11.118;2022-07-29T08:23:50;5.20;;;2.25;;
49758;SDS011;35654;46.080;11.118;2022-07-29T08:26:18;3.08;;;2.10;;
49758;SDS011;35654;46.080;11.118;2022-07-29T08:28:45;3.35;;;2.30;;
49758;SDS011;35654;46.080;11.118;2022-07-29T08:31:14;3.90;;;2.00;;
49758;SDS011;35654;46.080;11.118;2022-07-29T08:36:06;3.65;;;2.15;;
49758;SDS011;35654;46.080;11.118;2022-07-29T08:38:31;2.60;;;2.03;;
49758;SDS011;35654;46.080;11.118;2022-07-29T08:40:58;4.68;;;2.30;;
49758;SDS011;35654;46.080;11.118;2022-07-29T08:43:26;5.30;;;2.63;;
49758;SDS011;35654;46.080;11.118;2022-07-29T08:45:53;5.32;;;2.40;;
49758;SDS011;35654;46.080;11.118;2022-07-29T08:48:19;5.55;;;2.47;;
49758;SDS011;35654;46.080;11.118;2022-07-29T08:50:46;4.15;;;2.40;;
49758;SDS011;35654;46.080;11.118;2022-07-29T08:53:15;3.83;;;2.42;;
49758;SDS011;35654;46.080;11.118;2022-07-29T08:55:43;6.53;;;2.40;;
49758;SDS011;35654;46.080;11.118;2022-07-29T08:58:09;3.30;;;2.53;;
49758;SDS011;35654;46.080;11.118;2022-07-29T09:00:36;4.03;;;2.47;;
49758;SDS011;35654;46.080;11.118;2022-07-29T09:03:06;4.97;;;2.28;;
49758;SDS011;35654;46.080;11.118;2022-07-29T09:05:33;3.70;;;2.38;;
49758;SDS011;35654;46.080;11.118;2022-07-29T09:10:24;4.32;;;2.38;;
49758;SDS011;35654;46.080;11.118;2022-07-29T09:12:50;2.53;;;2.20;;
49758;SDS011;35654;46.080;11.118;2022-07-29T09:15:17;2.63;;;2.10;;
49758;SDS011;35654;46.080;11.118;2022-07-29T09:17:43;3.38;;;2.40;;
49758;SDS011;35654;46.080;11.118;2022-07-29T09:20:20;4.07;;;2.25;;
49758;SDS011;35654;46.080;11.118;2022-07-29T09:22:49;3.90;;;2.10;;
49758;SDS011;35654;46.080;11.118;2022-07-29T09:25:36;2.85;;;2.20;;
49758;SDS011;35654;46.080;11.118;2022-07-29T09:30:38;4.88;;;2.40;;
49758;SDS011;35654;46.080;11.118;2022-07-29T09:33:16;2.55;;;2.08;;
49758;SDS011;35654;46.080;11.118;2022-07-29T09:35:42;3.33;;;2.10;;
49758;SDS011;35654;46.080;11.118;2022-07-29T09:40:39;6.60;;;2.30;;
49758;SDS011;35654;46.080;11.118;2022-07-29T09:43:11;7.13;;;2.60;;
49758;SDS011;35654;46.080;11.118;2022-07-29T09:45:38;3.88;;;2.40;;
49758;SDS011;35654;46.080;11.118;2022-07-29T09:48:17;7.43;;;2.28;;
49758;SDS011;35654;46.080;11.118;2022-07-29T09:50:45;4.32;;;2.25;;
49758;SDS011;35654;46.080;11.118;2022-07-29T09:53:11;3.80;;;1.92;;
49758;SDS011;35654;46.080;11.118;2022-07-29T09:55:54;3.40;;;2.13;;
49758;SDS011;35654;46.080;11.118;2022-07-29T10:00:46;3.33;;;2.20;;
49758;SDS011;35654;46.080;11.118;2022-07-29T10:03:13;2.22;;;1.80;;
49758;SDS011;35654;46.080;11.118;2022-07-29T10:05:40;2.63;;;1.50;;
49758;SDS011;35654;46.080;11.118;2022-07-29T10:08:07;2.85;;;1.67;;
49758;SDS011;35654;46.080;11.118;2022-07-29T10:10:37;2.95;;;1.80;;
49758;SDS011;35654;46.080;11.118;2022-07-29T10:13:10;3.10;;;1.80;;
49758;SDS011;35654;46.080;11.118;2022-07-29T10:15:37;1.92;;;1.67;;
49758;SDS011;35654;46.080;11.118;2022-07-29T10:18:06;2.28;;;1.80;;
49758;SDS011;35654;46.080;11.118;2022-07-29T10:20:32;2.25;;;1.73;;
49758;SDS011;35654;46.080;11.118;2022-07-29T10:22:58;3.30;;;2.10;;
49758;SDS011;35654;46.080;11.118;2022-07-29T10:27:49;3.58;;;2.10;;
49758;SDS011;35654;46.080;11.118;2022-07-29T10:30:20;2.78;;;1.92;;
49758;SDS011;35654;46.080;11.118;2022-07-29T10:46:52;3.25;;;2.05;;
49758;SDS011;35654;46.080;11.118;2022-07-29T10:57:25;3.28;;;1.90;;
49758;SDS011;35654;46.080;11.118;2022-07-29T11:05:21;4.07;;;1.80;;
49758;SDS011;35654;46.080;11.118;2022-07-29T11:10:38;5.57;;;1.75;;
49758;SDS011;35654;46.080;11.118;2022-07-29T11:13:04;2.25;;;1.77;;
49758;SDS011;35654;46.080;11.118;2022-07-29T11:15:32;2.85;;;1.90;;
49758;SDS011;35654;46.080;11.118;2022-07-29T11:18:19;2.25;;;1.63;;
49758;SDS011;35654;46.080;11.118;2022-07-29T11:20:48;1.60;;;1.30;;
49758;SDS011;35654;46.080;11.118;2022-07-29T11:28:36;1.50;;;1.15;;
49758;SDS011;35654;46.080;11.118;2022-07-29T11:31:13;9.45;;;1.60;;
49758;SDS011;35654;46.080;11.118;2022-07-29T11:33:40;1.95;;;1.20;;
49758;SDS011;35654;46.080;11.118;2022-07-29T11:36:09;1.95;;;1.45;;
49758;SDS011;35654;46.080;11.118;2022-07-29T11:38:39;1.60;;;1.45;;
49758;SDS011;35654;46.080;11.118;2022-07-29T11:43:45;2.20;;;1.50;;
49758;SDS011;35654;46.080;11.118;2022-07-29T11:46:12;2.88;;;1.45;;
49758;SDS011;35654;46.080;11.118;2022-07-29T11:48:41;2.30;;;1.23;;
49758;SDS011;35654;46.080;11.118;2022-07-29T11:51:10;2.60;;;1.70;;
49758;SDS011;35654;46.080;11.118;2022-07-29T11:53:37;3.15;;;1.65;;
49758;SDS011;35654;46.080;11.118;2022-07-29T11:56:04;1.58;;;1.48;;
49758;SDS011;35654;46.080;11.118;2022-07-29T11:58:33;2.10;;;1.60;;
49758;SDS011;35654;46.080;11.118;2022-07-29T12:00:59;2.22;;;1.48;;
49758;SDS011;35654;46.080;11.118;2022-07-29T12:03:26;1.52;;;1.30;;
49758;SDS011;35654;46.080;11.118;2022-07-29T12:05:52;2.75;;;1.60;;
49758;SDS011;35654;46.080;11.118;2022-07-29T12:08:19;3.95;;;1.60;;
49758;SDS011;35654;46.080;11.118;2022-07-29T12:10:48;2.63;;;1.67;;
49758;SDS011;35654;46.080;11.118;2022-07-29T12:13:15;4.38;;;2.08;;
49758;SDS011;35654;46.080;11.118;2022-07-29T12:15:42;4.07;;;1.90;;
49758;SDS011;35654;46.080;11.118;2022-07-29T12:18:19;2.83;;;1.70;;
49758;SDS011;35654;46.080;11.118;2022-07-29T12:20:46;3.80;;;1.80;;
49758;SDS011;35654;46.080;11.118;2022-07-29T12:23:13;4.63;;;1.92;;
49758;SDS011;35654;46.080;11.118;2022-07-29T12:25:41;3.00;;;1.80;;
49758;SDS011;35654;46.080;11.118;2022-07-29T12:28:12;2.58;;;1.60;;
49758;SDS011;35654;46.080;11.118;2022-07-29T12:33:21;3.60;;;1.67;;
49758;SDS011;35654;46.080;11.118;2022-07-29T12:35:48;5.30;;;1.60;;
49758;SDS011;35654;46.080;11.118;2022-07-29T12:38:15;2.08;;;1.88;;
49758;SDS011;35654;46.080;11.118;2022-07-29T12:40:42;4.68;;;1.60;;
49758;SDS011;35654;46.080;11.118;2022-07-29T12:45:41;2.38;;;1.90;;
49758;SDS011;35654;46.080;11.118;2022-07-29T12:48:09;3.28;;;1.95;;
49758;SDS011;35654;46.080;11.118;2022-07-29T12:50:36;5.78;;;1.80;;
49758;SDS011;35654;46.080;11.118;2022-07-29T12:53:08;5.53;;;2.10;;
49758;SDS011;35654;46.080;11.118;2022-07-29T12:55:45;3.55;;;1.83;;
49758;SDS011;35654;46.080;11.118;2022-07-29T12:58:29;3.88;;;2.13;;
49758;SDS011;35654;46.080;11.118;2022-07-29T13:01:16;3.90;;;2.00;;
49758;SDS011;35654;46.080;11.118;2022-07-29T13:03:47;3.38;;;2.30;;
49758;SDS011;35654;46.080;11.118;2022-07-29T13:08:58;3.45;;;1.90;;
49758;SDS011;35654;46.080;11.118;2022-07-29T13:11:32;3.15;;;2.13;;
49758;SDS011;35654;46.080;11.118;2022-07-29T13:13:59;9.48;;;2.10;;
49758;SDS011;35654;46.080;11.118;2022-07-29T13:16:24;6.25;;;2.00;;
49758;SDS011;35654;46.080;11.118;2022-07-29T13:19:02;4.00;;;1.90;;
49758;SDS011;35654;46.080;11.118;2022-07-29T13:21:35;2.95;;;2.00;;
49758;SDS011;35654;46.080;11.118;2022-07-29T13:24:01;5.07;;;2.53;;
49758;SDS011;35654;46.080;11.118;2022-07-29T13:26:26;5.35;;;2.38;;
49758;SDS011;35654;46.080;11.118;2022-07-29T13:28:52;6.28;;;2.35;;
49758;SDS011;35654;46.080;11.118;2022-07-29T13:31:18;3.78;;;2.20;;
49758;SDS011;35654;46.080;11.118;2022-07-29T13:33:43;2.65;;;1.90;;
49758;SDS011;35654;46.080;11.118;2022-07-29T13:36:09;5.05;;;2.22;;
49758;SDS011;35654;46.080;11.118;2022-07-29T13:38:34;3.40;;;2.70;;
49758;SDS011;35654;46.080;11.118;2022-07-29T13:41:00;5.43;;;2.20;;
49758;SDS011;35654;46.080;11.118;2022-07-29T13:43:25;4.68;;;2.40;;
49758;SDS011;35654;46.080;11.118;2022-07-29T13:45:51;5.85;;;2.60;;
49758;SDS011;35654;46.080;11.118;2022-07-29T13:48:16;3.40;;;3.10;;
49758;SDS011;35654;46.080;11.118;2022-07-29T13:50:42;5.72;;;3.60;;
49758;SDS011;35654;46.080;11.118;2022-07-29T13:53:07;5.15;;;3.40;;
49758;SDS011;35654;46.080;11.118;2022-07-29T13:55:33;4.60;;;3.70;;
49758;SDS011;35654;46.080;11.118;2022-07-29T13:57:59;6.35;;;4.20;;
49758;SDS011;35654;46.080;11.118;2022-07-29T14:00:24;7.25;;;4.10;;
49758;SDS011;35654;46.080;11.118;2022-07-29T14:02:51;7.55;;;3.90;;
49758;SDS011;35654;46.080;11.118;2022-07-29T14:05:17;6.28;;;4.25;;
49758;SDS011;35654;46.080;11.118;2022-07-29T14:07:42;8.80;;;4.35;;
49758;SDS011;35654;46.080;11.118;2022-07-29T14:10:08;5.00;;;4.30;;
49758;SDS011;35654;46.080;11.118;2022-07-29T14:12:33;6.28;;;4.22;;
49758;SDS011;35654;46.080;11.118;2022-07-29T14:14:59;9.00;;;4.78;;
49758;SDS011;35654;46.080;11.118;2022-07-29T14:17:24;8.38;;;4.70;;
49758;SDS011;35654;46.080;11.118;2022-07-29T14:19:50;5.30;;;4.20;;
49758;SDS011;35654;46.080;11.118;2022-07-29T14:22:15;7.07;;;4.30;;
49758;SDS011;35654;46.080;11.118;2022-07-29T14:24:41;8.20;;;5.18;;
49758;SDS011;35654;46.080;11.118;2022-07-29T14:27:06;8.07;;;4.15;;
49758;SDS011;35654;46.080;11.118;2022-07-29T14:29:33;5.80;;;4.13;;
49758;SDS011;35654;46.080;11.118;2022-07-29T14:31:59;9.88;;;5.13;;
49758;SDS011;35654;46.080;11.118;2022-07-29T14:34:24;6.72;;;4.20;;
49758;SDS011;35654;46.080;11.118;2022-07-29T14:36:50;8.98;;;4.60;;
49758;SDS011;35654;46.080;11.118;2022-07-29T14:39:15;7.00;;;4.68;;
49758;SDS011;35654;46.080;11.118;2022-07-29T14:41:41;7.38;;;4.72;;
49758;SDS011;35654;46.080;11.118;2022-07-29T14:44:07;7.93;;;4.57;;
49758;SDS011;35654;46.080;11.118;2022-07-29T14:46:32;13.73;;;6.95;;
49758;SDS011;35654;46.080;11.118;2022-07-29T14:48:58;9.35;;;4.60;;
49758;SDS011;35654;46.080;11.118;2022-07-29T14:51:23;6.00;;;4.30;;
49758;SDS011;35654;46.080;11.118;2022-07-29T14:53:48;8.07;;;4.82;;
49758;SDS011;35654;46.080;11.118;2022-07-29T14:56:14;7.97;;;4.07;;
49758;SDS011;35654;46.080;11.118;2022-07-29T14:58:39;7.80;;;4.68;;
49758;SDS011;35654;46.080;11.118;2022-07-29T15:01:04;9.55;;;4.35;;
49758;SDS011;35654;46.080;11.118;2022-07-29T15:03:31;8.00;;;4.32;;
49758;SDS011;35654;46.080;11.118;2022-07-29T15:05:56;5.90;;;4.43;;
49758;SDS011;35654;46.080;11.118;2022-07-29T15:08:22;8.80;;;4.60;;
49758;SDS011;35654;46.080;11.118;2022-07-29T15:10:47;5.28;;;4.28;;
49758;SDS011;35654;46.080;11.118;2022-07-29T15:13:13;9.48;;;4.50;;
49758;SDS011;35654;46.080;11.118;2022-07-29T15:15:39;7.60;;;4.50;;
49758;SDS011;35654;46.080;11.118;2022-07-29T15:18:05;7.63;;;4.43;;
49758;SDS011;35654;46.080;11.118;2022-07-29T15:20:31;7.45;;;4.82;;
49758;SDS011;35654;46.080;11.118;2022-07-29T15:22:57;5.50;;;4.40;;
49758;SDS011;35654;46.080;11.118;2022-07-29T15:25:22;7.18;;;4.60;;
49758;SDS011;35654;46.080;11.118;2022-07-29T15:27:48;7.07;;;4.82;;
49758;SDS011;35654;46.080;11.118;2022-07-29T15:30:14;9.23;;;4.60;;
49758;SDS011;35654;46.080;11.118;2022-07-29T15:32:42;8.38;;;5.25;;
49758;SDS011;35654;46.080;11.118;2022-07-29T15:35:10;8.52;;;4.70;;
49758;SDS011;35654;46.080;11.118;2022-07-29T15:37:37;6.50;;;5.13;;
49758;SDS011;35654;46.080;11.118;2022-07-29T15:40:04;8.73;;;4.95;;
49758;SDS011;35654;46.080;11.118;2022-07-29T15:42:30;7.90;;;5.18;;
49758;SDS011;35654;46.080;11.118;2022-07-29T15:44:55;6.95;;;4.93;;
49758;SDS011;35654;46.080;11.118;2022-07-29T15:47:21;6.78;;;5.05;;
49758;SDS011;35654;46.080;11.118;2022-07-29T15:49:47;6.57;;;4.65;;
49758;SDS011;35654;46.080;11.118;2022-07-29T15:52:13;6.15;;;5.18;;
49758;SDS011;35654;46.080;11.118;2022-07-29T15:54:40;8.07;;;4.72;;
49758;SDS011;35654;46.080;11.118;2022-07-29T15:57:05;6.75;;;4.53;;
49758;SDS011;35654;46.080;11.118;2022-07-29T15:59:33;6.97;;;4.47;;
49758;SDS011;35654;46.080;11.118;2022-07-29T16:01:59;7.60;;;4.65;;
49758;SDS011;35654;46.080;11.118;2022-07-29T16:04:25;5.55;;;4.28;;